Terminal Aerodrome Forecast
Issued by NWS

Home | Current Version | Previous Version | Text Only | Print | Product List | Glossary On
Versions: 1 2 3 4 5 6 7 8 9 10 11 12 13 14
000
FTUS44 KSJT 011700
TAFSOA
TAF
KSOA 011722Z 0118/0218 19011G17KT P6SM FEW060
     FM020000 17008KT P6SM SCT150
     FM021000 18008KT P6SM BKN012
     FM021600 19010G16KT P6SM SCT020=

USA.gov is the U.S. government's official web portal to all federal, state and local government web resources and services.